Time;durP1;ratioP1;P1;durP2;ratioP2;P2;SDS_P1;SDS_P2;PMS_P1;PMS_P2;Temp;Humidity;BMP_temperature;BMP_pressure;BME280_temperature;BME280_humidity;BME280_pressure;Samples;Min_cycle;Max_cycle;Signal;HPM_P1;HPM_P2
2023/05/09 04:22:32;;;;;;;18.00;8.80;;;;;;;13.97;100.00;100350.97;5089508;28;20389;-68
2023/05/09 04:24:57;;;;;;;17.83;9.05;;;;;;;14.03;100.00;100344.84;5088279;28;20033;-68
2023/05/09 04:27:23;;;;;;;20.70;10.52;;;;;;;14.04;100.00;100346.47;5087858;28;20044;-67
2023/05/09 04:29:49;;;;;;;21.08;10.02;;;;;;;14.09;100.00;100349.41;5088197;28;20034;-68
2023/05/09 04:32:15;;;;;;;21.48;10.40;;;;;;;14.11;100.00;100355.41;5074845;28;20482;-68
2023/05/09 04:34:41;;;;;;;18.77;9.10;;;;;;;14.11;100.00;100352.72;5067762;28;20481;-68
2023/05/09 04:37:13;;;;;;;20.92;10.27;;;;;;;14.13;100.00;100358.69;5067481;28;20125;-69
2023/05/09 04:39:40;;;;;;;16.65;8.90;;;;;;;14.16;100.00;100358.34;5067894;28;20037;-68
2023/05/09 04:42:14;;;;;;;25.70;11.38;;;;;;;14.21;100.00;100352.38;5067668;28;20037;-68
2023/05/09 04:44:39;;;;;;;22.08;9.93;;;;;;;14.23;100.00;100347.66;5067726;28;20036;-68
2023/05/09 04:47:05;;;;;;;19.17;8.90;;;;;;;14.21;100.00;100353.19;5084882;28;20040;-66
2023/05/09 04:49:31;;;;;;;20.25;9.73;;;;;;;14.25;100.00;100349.13;5087623;28;20044;-67
2023/05/09 04:51:56;;;;;;;12.82;7.38;;;;;;;14.26;100.00;100350.78;5087643;28;20070;-68
2023/05/09 04:54:21;;;;;;;21.65;10.88;;;;;;;14.27;100.00;100347.06;5087677;28;20059;-65
2023/05/09 04:56:50;;;;;;;27.80;12.15;;;;;;;14.31;100.00;100348.34;5087361;28;20041;-64
2023/05/09 04:59:16;;;;;;;20.75;10.30;;;;;;;14.33;100.00;100343.59;5088907;28;20040;-64
2023/05/09 05:01:42;;;;;;;19.98;10.32;;;;;;;14.35;100.00;100343.44;5087481;28;20082;-64
2023/05/09 05:04:08;;;;;;;18.92;9.65;;;;;;;14.36;100.00;100339.72;5087419;28;20033;-65
2023/05/09 05:06:34;;;;;;;17.52;8.55;;;;;;;14.36;100.00;100337.06;5069097;28;20067;-62
2023/05/09 05:08:59;;;;;;;19.73;9.90;;;;;;;14.40;100.00;100333.75;5088142;28;20404;-67
2023/05/09 05:11:25;;;;;;;19.67;8.48;;;;;;;14.41;100.00;100326.56;5087277;28;20396;-63
2023/05/09 05:13:50;;;;;;;17.73;9.70;;;;;;;14.40;100.00;100319.53;5088848;28;20135;-64
2023/05/09 05:16:16;;;;;;;21.13;9.63;;;;;;;14.43;100.00;100326.38;5087188;28;20101;-65
2023/05/09 05:18:42;;;;;;;19.77;10.70;;;;;;;14.48;100.00;100323.97;5086804;28;20034;-66
2023/05/09 05:21:08;;;;;;;18.45;10.13;;;;;;;14.48;100.00;100327.47;5086991;28;20501;-64
2023/05/09 05:23:34;;;;;;;21.85;10.63;;;;;;;14.54;100.00;100329.38;5087155;28;20036;-62
2023/05/09 05:25:59;;;;;;;19.45;8.77;;;;;;;14.60;100.00;100319.69;5086906;28;20039;-64
2023/05/09 05:28:25;;;;;;;19.50;9.95;;;;;;;14.65;100.00;100318.06;5086700;28;20036;-63
2023/05/09 05:30:51;;;;;;;15.70;9.23;;;;;;;14.69;100.00;100323.88;5086951;28;20032;-64
2023/05/09 05:33:16;;;;;;;18.63;9.02;;;;;;;14.75;100.00;100320.41;5076823;28;20036;-65
2023/05/09 05:35:42;;;;;;;19.90;10.20;;;;;;;14.78;100.00;100325.34;5073220;28;20044;-64
2023/05/09 05:38:08;;;;;;;24.25;11.32;;;;;;;14.84;100.00;100321.88;5073070;28;20075;-65
2023/05/09 05:40:33;;;;;;;22.48;11.00;;;;;;;14.86;100.00;100325.19;5073321;28;20056;-64
2023/05/09 05:43:01;;;;;;;23.27;10.48;;;;;;;14.92;100.00;100323.56;5073191;28;20094;-63
2023/05/09 05:45:29;;;;;;;21.02;10.95;;;;;;;14.96;100.00;100324.00;5073178;28;20409;-65
2023/05/09 05:47:56;;;;;;;19.75;10.52;;;;;;;15.00;100.00;100319.91;5073006;28;20059;-64
2023/05/09 05:50:22;;;;;;;20.60;9.95;;;;;;;15.04;100.00;100321.16;5073062;28;20524;-64
2023/05/09 05:52:47;;;;;;;20.30;11.07;;;;;;;15.09;100.00;100321.38;5073179;28;20127;-63
2023/05/09 05:55:15;;;;;;;20.73;11.07;;;;;;;15.15;100.00;100320.56;5072783;28;20507;-63
2023/05/09 05:57:41;;;;;;;21.50;10.13;;;;;;;15.18;100.00;100318.31;5074198;28;20036;-66
2023/05/09 06:00:13;;;;;;;19.90;9.70;;;;;;;15.28;100.00;100317.94;5072926;28;20112;-63
2023/05/09 06:02:49;;;;;;;23.30;10.65;;;;;;;15.35;100.00;100317.94;5073112;28;20090;-65
2023/05/09 06:05:21;;;;;;;19.85;9.63;;;;;;;15.35;100.00;100316.09;5072811;28;20040;-66
2023/05/09 06:07:47;;;;;;;20.15;10.27;;;;;;;15.43;100.00;100315.91;5073797;28;20122;-64
2023/05/09 06:10:14;;;;;;;21.23;9.77;;;;;;;15.46;100.00;100315.50;5074120;28;20029;-62
2023/05/09 06:12:40;;;;;;;20.55;9.77;;;;;;;15.54;100.00;100313.66;5054012;28;20489;-63
2023/05/09 06:15:06;;;;;;;21.55;9.77;;;;;;;15.55;100.00;100310.75;5052608;28;20044;-66
2023/05/09 06:17:34;;;;;;;19.00;9.45;;;;;;;15.62;100.00;100316.19;5054014;28;20045;-64
2023/05/09 06:20:00;;;;;;;23.77;10.30;;;;;;;15.63;100.00;100318.66;5052941;28;20083;-65
2023/05/09 06:22:25;;;;;;;18.00;9.90;;;;;;;15.65;100.00;100326.53;5035779;28;20041;-67
2023/05/09 06:24:51;;;;;;;19.52;10.05;;;;;;;15.65;100.00;100321.16;5052601;28;20041;-64
2023/05/09 06:27:16;;;;;;;17.77;9.68;;;;;;;15.63;100.00;100312.47;5062393;28;20374;-64
2023/05/09 06:29:41;;;;;;;18.95;9.75;;;;;;;15.68;100.00;100305.44;5072319;28;20127;-65
2023/05/09 06:32:07;;;;;;;21.25;10.63;;;;;;;15.69;100.00;100298.22;5073496;28;20563;-64
2023/05/09 06:34:32;;;;;;;27.08;10.75;;;;;;;15.77;100.00;100295.31;5073529;28;20131;-64
2023/05/09 06:36:58;;;;;;;22.10;9.50;;;;;;;15.78;100.00;100286.25;5073199;28;20131;-64
2023/05/09 06:39:23;;;;;;;21.77;10.57;;;;;;;15.82;100.00;100292.03;5072221;28;20036;-64
2023/05/09 06:41:48;;;;;;;24.73;10.93;;;;;;;15.89;100.00;100288.31;5073465;28;20040;-64
2023/05/09 06:44:22;;;;;;;25.33;11.45;;;;;;;15.95;100.00;100292.03;5071229;28;20063;-65
2023/05/09 06:46:48;;;;;;;28.80;11.38;;;;;;;16.02;100.00;100279.41;5073017;28;20478;-64
2023/05/09 06:49:13;;;;;;;27.63;11.32;;;;;;;16.11;100.00;100286.25;5073068;28;20052;-64
2023/05/09 06:51:38;;;;;;;24.02;11.07;;;;;;;16.17;100.00;100279.19;5073077;28;20044;-65
2023/05/09 06:54:04;;;;;;;26.55;12.00;;;;;;;16.23;100.00;100281.84;5073084;28;20035;-64
2023/05/09 06:56:30;;;;;;;25.25;12.80;;;;;;;16.19;100.00;100279.81;5073055;28;20519;-64
2023/05/09 06:58:55;;;;;;;28.23;13.00;;;;;;;16.23;100.00;100279.16;5072822;28;20546;-63
2023/05/09 07:01:20;;;;;;;26.17;11.68;;;;;;;16.24;100.00;100275.47;5073038;28;20029;-64
2023/05/09 07:03:46;;;;;;;27.92;12.32;;;;;;;16.21;100.00;100270.50;5073064;28;20131;-63
2023/05/09 07:06:12;;;;;;;30.75;13.13;;;;;;;16.24;100.00;100258.53;5072786;28;20044;-65
2023/05/09 07:08:38;;;;;;;28.52;12.77;;;;;;;16.33;100.00;100270.69;5072611;28;20478;-65
2023/05/09 07:11:03;;;;;;;30.05;13.25;;;;;;;16.40;100.00;100259.94;5072816;28;20040;-65
2023/05/09 07:13:29;;;;;;;31.95;14.68;;;;;;;16.43;100.00;100256.81;5072772;28;20059;-62
2023/05/09 07:15:54;;;;;;;31.10;13.57;;;;;;;16.55;100.00;100261.31;5072606;28;20044;-61
2023/05/09 07:18:20;;;;;;;36.08;14.57;;;;;;;16.35;100.00;100251.66;5072390;28;20055;-62
2023/05/09 07:20:45;;;;;;;30.52;14.02;;;;;;;16.49;100.00;100239.81;5072450;28;20120;-63
2023/05/09 07:23:11;;;;;;;32.28;13.32;;;;;;;16.59;100.00;100239.41;5072589;28;20037;-61
2023/05/09 07:25:36;;;;;;;30.10;12.60;;;;;;;16.58;100.00;100232.38;5072475;28;20032;-64
2023/05/09 07:28:01;;;;;;;32.70;14.68;;;;;;;16.54;100.00;100229.28;5072233;28;20544;-66
2023/05/09 07:30:27;;;;;;;35.05;13.98;;;;;;;16.59;100.00;100226.78;5072376;28;20063;-60
2023/05/09 07:32:52;;;;;;;29.38;13.18;;;;;;;16.58;100.00;100221.63;5072520;28;20036;-61
2023/05/09 07:35:18;;;;;;;27.98;13.88;;;;;;;16.60;100.00;100220.34;5071016;28;20047;-64
2023/05/09 07:37:43;;;;;;;33.53;14.65;;;;;;;16.56;100.00;100227.19;5071474;28;20043;-65
2023/05/09 07:40:09;;;;;;;27.90;13.02;;;;;;;16.60;100.00;100220.34;5072168;28;20497;-60
2023/05/09 07:42:35;;;;;;;23.48;12.73;;;;;;;16.63;100.00;100208.38;5072107;28;20040;-61
2023/05/09 07:45:02;;;;;;;30.73;14.50;;;;;;;16.58;100.00;100206.31;5072242;28;20399;-63
2023/05/09 07:47:28;;;;;;;29.77;13.50;;;;;;;16.59;100.00;100199.06;5071149;28;20526;-65
2023/05/09 07:49:53;;;;;;;29.08;14.10;;;;;;;16.61;100.00;100207.72;5072017;28;20123;-64
2023/05/09 07:52:19;;;;;;;28.58;12.98;;;;;;;16.61;100.00;100195.09;5072124;28;20048;-64
2023/05/09 07:54:44;;;;;;;32.75;12.85;;;;;;;16.59;100.00;100194.50;5072052;28;20093;-65
2023/05/09 07:57:10;;;;;;;30.95;13.48;;;;;;;16.59;100.00;100191.81;5070519;28;20040;-64
2023/05/09 07:59:35;;;;;;;30.27;13.07;;;;;;;16.65;100.00;100195.53;5072121;28;20484;-63
2023/05/09 08:02:01;;;;;;;29.38;13.70;;;;;;;16.70;100.00;100188.50;5071571;28;20434;-64
2023/05/09 08:04:26;;;;;;;32.83;14.90;;;;;;;16.78;100.00;100184.72;5071955;28;20043;-65
2023/05/09 08:06:52;;;;;;;25.95;13.70;;;;;;;16.90;100.00;100183.00;5071387;28;20036;-63
2023/05/09 08:09:17;;;;;;;28.73;14.10;;;;;;;17.05;100.00;100180.84;5071492;28;20509;-63
2023/05/09 08:11:43;;;;;;;27.42;13.18;;;;;;;17.22;100.00;100181.16;5071626;28;20390;-64
2023/05/09 08:14:08;;;;;;;30.27;13.60;;;;;;;17.31;100.00;100179.00;5071882;28;20033;-63
2023/05/09 08:16:34;;;;;;;25.63;13.20;;;;;;;17.44;100.00;100172.69;5071177;28;20560;-65
2023/05/09 08:18:59;;;;;;;28.90;13.32;;;;;;;17.50;100.00;100161.84;5071161;28;20117;-64
2023/05/09 08:21:25;;;;;;;30.60;14.45;;;;;;;17.32;100.00;100170.69;5071399;28;20056;-63
2023/05/09 08:23:51;;;;;;;29.10;13.43;;;;;;;17.53;100.00;100161.41;5071856;28;20078;-63
2023/05/09 08:26:17;;;;;;;25.90;13.02;;;;;;;17.63;100.00;100153.66;5071828;28;20266;-63
2023/05/09 08:28:42;;;;;;;24.73;12.52;;;;;;;17.70;100.00;100155.47;5070937;28;20032;-62
2023/05/09 08:31:07;;;;;;;27.05;13.23;;;;;;;17.79;100.00;100144.19;5071398;28;20743;-61
2023/05/09 08:33:33;;;;;;;24.30;12.20;;;;;;;17.87;100.00;100154.72;5071667;28;20044;-63
2023/05/09 08:35:58;;;;;;;26.55;12.98;;;;;;;17.70;100.00;100152.78;5071706;28;20047;-61
2023/05/09 08:38:24;;;;;;;26.98;14.02;;;;;;;17.66;100.00;100133.53;5070692;28;20044;-61
2023/05/09 08:40:49;;;;;;;26.98;13.15;;;;;;;17.78;100.00;100150.63;5071575;28;20071;-64
2023/05/09 08:43:18;;;;;;;25.27;13.00;;;;;;;18.00;100.00;100140.28;5071622;28;20052;-64
2023/05/09 08:45:57;;;;;;;25.70;11.88;;;;;;;17.90;100.00;100132.69;5071574;28;20037;-63
2023/05/09 08:48:24;;;;;;;20.23;11.60;;;;;;;18.08;100.00;100141.84;5070562;28;20044;-64
2023/05/09 08:50:49;;;;;;;21.17;10.88;;;;;;;18.24;100.00;100137.72;5071261;28;20070;-63
2023/05/09 08:53:15;;;;;;;20.60;10.73;;;;;;;18.40;100.00;100139.81;5071433;28;20037;-52
2023/05/09 08:55:41;;;;;;;20.58;11.13;;;;;;;18.30;100.00;100140.31;5071494;28;20035;-63
2023/05/09 08:58:08;;;;;;;19.35;10.90;;;;;;;18.31;100.00;100135.75;5070428;28;20066;-63
2023/05/09 09:00:36;;;;;;;21.73;10.57;;;;;;;18.27;100.00;100134.56;5071376;28;20401;-65
2023/05/09 09:03:04;;;;;;;21.05;11.45;;;;;;;18.17;100.00;100119.75;5071143;28;20043;-62
2023/05/09 09:05:33;;;;;;;19.60;9.63;;;;;;;18.24;100.00;100124.22;5071368;28;20032;-63
2023/05/09 09:07:58;;;;;;;22.27;10.57;;;;;;;18.39;100.00;100113.88;5071907;28;20040;-65
2023/05/09 09:10:27;;;;;;;17.58;9.63;;;;;;;18.49;100.00;100113.34;5075072;28;20044;-63
2023/05/09 09:12:53;;;;;;;17.95;10.00;;;;;;;18.51;100.00;100109.34;5074768;28;20048;-64
2023/05/09 09:15:20;;;;;;;21.08;10.10;;;;;;;18.65;100.00;100108.13;5074743;28;20041;-65
2023/05/09 09:17:55;;;;;;;16.08;9.88;;;;;;;18.73;100.00;100098.91;5074360;28;20512;-63
2023/05/09 09:20:21;;;;;;;16.70;8.55;;;;;;;18.95;100.00;100100.03;5074867;28;20106;-65
2023/05/09 09:22:51;;;;;;;15.60;9.47;;;;;;;18.97;100.00;100097.06;5074829;28;20036;-64
2023/05/09 09:25:16;;;;;;;13.07;7.03;;;;;;;19.13;100.00;100085.63;5074766;28;20470;-64
2023/05/09 09:27:41;;;;;;;13.95;8.10;;;;;;;19.18;100.00;100093.84;5073646;28;20123;-64
2023/05/09 09:30:11;;;;;;;13.98;8.05;;;;;;;19.33;100.00;100090.69;5074755;28;20074;-64
2023/05/09 09:32:38;;;;;;;15.50;8.30;;;;;;;19.40;98.72;100087.88;5074494;28;20036;-64
2023/05/09 09:35:08;;;;;;;;;;;;;;;19.51;99.81;100081.66;5075212;28;20047;-63
2023/05/09 09:37:34;;;;;;;13.02;7.63;;;;;;;19.48;100.00;100082.91;5073603;28;20397;-64
2023/05/09 09:40:00;;;;;;;13.30;7.33;;;;;;;19.62;99.87;100074.59;5074778;28;20025;-62
2023/05/09 09:42:26;;;;;;;12.93;7.50;;;;;;;19.72;100.00;100069.44;5074225;28;20374;-63
2023/05/09 09:45:12;;;;;;;10.65;6.85;;;;;;;19.63;98.12;100060.06;5074521;28;20067;-63
2023/05/09 09:47:39;;;;;;;11.90;7.25;;;;;;;19.54;99.02;100059.56;5073484;28;20106;-61
2023/05/09 09:50:16;;;;;;;13.88;7.68;;;;;;;19.66;96.30;100057.69;5074448;28;20106;-62
2023/05/09 09:52:49;;;;;;;13.02;7.45;;;;;;;19.51;97.51;100049.22;5073237;28;20049;-65
2023/05/09 09:55:15;;;;;;;14.15;6.82;;;;;;;19.51;96.55;100047.34;5074253;28;20555;-61
2023/05/09 09:57:44;;;;;;;9.35;6.22;;;;;;;19.61;98.00;100044.06;5074044;28;20025;-61
2023/05/09 10:00:11;;;;;;;11.43;6.60;;;;;;;19.56;99.52;100046.66;5074614;28;20445;-66
2023/05/09 10:02:55;;;;;;;11.15;6.32;;;;;;;19.63;99.94;100043.84;5074268;28;20036;-61
2023/05/09 10:05:25;;;;;;;10.80;5.97;;;;;;;19.52;99.70;100042.78;5074098;28;20040;-64
2023/05/09 10:07:56;;;;;;;9.93;5.72;;;;;;;19.66;100.00;100041.47;5073942;28;20040;-64
2023/05/09 10:10:21;;;;;;;9.73;5.80;;;;;;;19.62;96.85;100037.59;5074051;28;20036;-63
2023/05/09 10:12:49;;;;;;;10.85;6.15;;;;;;;19.30;99.69;100041.72;5074178;28;20370;-61
2023/05/09 10:15:19;;;;;;;10.23;6.13;;;;;;;19.40;100.00;100034.66;5073965;28;20040;-64
2023/05/09 10:17:44;;;;;;;9.52;5.40;;;;;;;19.41;100.00;100027.38;5073550;28;20120;-67
2023/05/09 10:20:11;;;;;;;9.10;5.97;;;;;;;19.14;100.00;100024.34;5073722;28;20120;-63
2023/05/09 10:22:38;;;;;;;12.63;6.85;;;;;;;18.86;100.00;100022.34;5074024;28;20033;-65
2023/05/09 10:25:13;;;;;;;8.20;5.60;;;;;;;18.87;100.00;100018.59;5073832;28;20093;-62
2023/05/09 10:27:43;;;;;;;13.35;5.78;;;;;;;18.80;100.00;100012.47;5073384;28;20043;-66
2023/05/09 10:30:21;;;;;;;10.70;6.38;;;;;;;18.71;100.00;100003.88;5073811;28;20040;-65
2023/05/09 10:32:52;;;;;;;6.72;4.72;;;;;;;18.56;100.00;100004.28;5073641;28;20055;-64
2023/05/09 10:35:21;;;;;;;9.50;5.35;;;;;;;18.51;100.00;99992.56;5073764;28;20040;-63
2023/05/09 10:37:47;;;;;;;9.05;5.60;;;;;;;18.52;100.00;99997.75;5073283;28;20103;-64
2023/05/09 10:40:14;;;;;;;6.20;4.22;;;;;;;18.56;100.00;99990.81;5073498;28;20560;-63
2023/05/09 10:42:42;;;;;;;8.65;4.60;;;;;;;18.40;100.00;99984.22;5073374;28;20025;-64
2023/05/09 10:45:09;;;;;;;6.43;4.38;;;;;;;18.46;100.00;99978.97;5073345;28;20040;-63
2023/05/09 10:47:36;;;;;;;8.48;5.18;;;;;;;18.47;100.00;99978.72;5072978;28;20024;-61
2023/05/09 10:50:02;;;;;;;12.73;6.75;;;;;;;18.36;100.00;99979.50;5073315;28;20068;-64
2023/05/09 10:52:32;;;;;;;13.82;7.22;;;;;;;18.50;100.00;99974.72;5073177;28;20052;-64
2023/05/09 10:55:00;;;;;;;11.90;7.05;;;;;;;18.52;100.00;99975.31;5073475;28;20375;-64
2023/05/09 10:57:28;;;;;;;13.20;7.60;;;;;;;18.56;100.00;99971.94;5072681;28;20121;-64
2023/05/09 10:59:55;;;;;;;11.60;7.47;;;;;;;18.62;100.00;99968.31;5073177;28;20032;-63
2023/05/09 11:02:21;;;;;;;12.82;7.60;;;;;;;18.70;100.00;99957.19;5073123;28;20060;-63
2023/05/09 11:04:46;;;;;;;12.20;7.28;;;;;;;18.77;100.00;99950.88;5073035;28;20086;-64
2023/05/09 11:07:25;;;;;;;10.02;6.18;;;;;;;18.66;100.00;99945.25;5072496;28;20046;-64
2023/05/09 11:10:15;;;;;;;13.70;6.88;;;;;;;18.69;100.00;99944.78;5072824;28;20447;-63
2023/05/09 11:12:57;;;;;;;10.30;5.78;;;;;;;18.59;100.00;99941.81;5066741;28;20048;-61
2023/05/09 11:15:22;;;;;;;8.70;5.28;;;;;;;18.39;100.00;99938.63;5072697;28;20041;-63
2023/05/09 11:18:08;;;;;;;10.65;6.50;;;;;;;18.36;100.00;99922.88;5072496;28;20086;-65
2023/05/09 11:20:34;;;;;;;10.70;5.97;;;;;;;18.42;100.00;99927.34;5072549;28;20097;-61
2023/05/09 11:23:02;;;;;;;10.60;6.18;;;;;;;18.39;100.00;99925.13;5072588;28;20036;-63
2023/05/09 11:25:28;;;;;;;14.20;6.65;;;;;;;18.23;100.00;99925.78;5072627;28;20407;-62
2023/05/09 11:27:57;;;;;;;13.00;6.97;;;;;;;18.36;100.00;99928.28;5072216;28;20049;-62
2023/05/09 11:30:35;;;;;;;9.80;5.78;;;;;;;18.25;100.00;99921.81;5072067;28;20032;-63
2023/05/09 11:33:01;;;;;;;7.95;4.82;;;;;;;18.30;100.00;99913.84;5072539;28;20473;-64
2023/05/09 11:35:26;;;;;;;11.30;5.78;;;;;;;18.31;100.00;99911.97;5070591;28;20052;-65
2023/05/09 11:37:58;;;;;;;9.98;5.85;;;;;;;18.29;100.00;99904.13;5052102;28;20036;-62
2023/05/09 11:40:25;;;;;;;9.45;5.78;;;;;;;18.43;100.00;99897.47;5052310;28;20041;-63
2023/05/09 11:42:53;;;;;;;10.75;6.20;;;;;;;18.41;100.00;99891.47;5052272;28;20056;-63
2023/05/09 11:45:19;;;;;;;10.30;6.22;;;;;;;18.35;100.00;99891.59;5052208;28;20405;-62
2023/05/09 11:47:49;;;;;;;10.82;6.40;;;;;;;18.44;100.00;99887.50;5052044;28;20036;-63
2023/05/09 11:50:16;;;;;;;10.38;5.93;;;;;;;18.43;100.00;99888.53;5052486;28;20037;-61
2023/05/09 11:52:42;;;;;;;8.77;4.78;;;;;;;18.34;100.00;99887.25;5052182;28;20033;-63
2023/05/09 11:55:18;;;;;;;7.10;4.78;;;;;;;18.54;100.00;99885.03;5051974;28;20440;-63
2023/05/09 11:57:47;;;;;;;8.33;5.23;;;;;;;18.16;100.00;99880.88;5061134;28;20033;-63
2023/05/09 12:00:18;;;;;;;7.72;4.78;;;;;;;18.29;100.00;99874.47;5061133;28;20043;-63
2023/05/09 12:02:45;;;;;;;7.85;5.10;;;;;;;18.21;100.00;99861.34;5061026;28;20032;-63
2023/05/09 12:05:13;;;;;;;8.38;4.53;;;;;;;18.27;100.00;99862.28;5062666;28;20025;-61
2023/05/09 12:07:39;;;;;;;8.15;4.45;;;;;;;18.33;100.00;99850.56;5061394;28;20039;-62
2023/05/09 12:10:07;;;;;;;6.53;3.95;;;;;;;18.15;100.00;99854.19;5060674;28;20032;-60
2023/05/09 12:12:34;;;;;;;5.80;3.70;;;;;;;18.28;100.00;99845.06;5062283;28;20073;-63
2023/05/09 12:15:06;;;;;;;5.57;3.55;;;;;;;18.22;100.00;99835.19;5061741;28;20036;-63
2023/05/09 12:17:31;;;;;;;5.97;3.42;;;;;;;18.43;100.00;99842.72;5056943;28;20048;-64
2023/05/09 12:19:59;;;;;;;5.93;3.95;;;;;;;18.56;100.00;99837.06;5051976;28;20040;-59
2023/05/09 12:22:24;;;;;;;5.50;3.92;;;;;;;18.67;100.00;99832.78;5051848;28;20086;-64
2023/05/09 12:24:49;;;;;;;5.82;3.17;;;;;;;18.47;100.00;99826.91;5057996;28;20032;-65
2023/05/09 12:27:15;;;;;;;6.00;3.60;;;;;;;18.27;100.00;99827.25;5051487;28;20114;-63
2023/05/09 12:29:44;;;;;;;5.60;3.58;;;;;;;18.47;100.00;99827.72;5051842;28;20037;-63
2023/05/09 12:32:11;;;;;;;11.05;5.82;;;;;;;18.52;100.00;99816.19;5051704;28;20045;-64
2023/05/09 12:34:36;;;;;;;12.87;5.13;;;;;;;18.60;100.00;99819.38;5051726;28;20521;-63
2023/05/09 12:37:02;;;;;;;7.03;4.60;;;;;;;18.61;100.00;99810.22;5051392;28;20033;-64
2023/05/09 12:39:28;;;;;;;5.63;3.85;;;;;;;18.57;100.00;99814.44;5051577;28;20044;-64
2023/05/09 12:41:53;;;;;;;5.00;3.17;;;;;;;18.49;100.00;99809.41;5051725;28;20502;-62
2023/05/09 12:44:25;;;;;;;4.30;3.50;;;;;;;18.62;100.00;99806.47;5055628;28;20588;-63
2023/05/09 12:46:55;;;;;;;4.47;3.20;;;;;;;18.72;100.00;99794.31;5055474;28;20045;-64
2023/05/09 12:49:21;;;;;;;5.65;3.55;;;;;;;18.81;100.00;99795.56;5055470;28;20518;-65
2023/05/09 12:51:49;;;;;;;6.43;4.05;;;;;;;18.90;100.00;99794.94;5055389;28;20037;-64
2023/05/09 12:54:18;;;;;;;;;;;;;;;18.80;100.00;99791.22;5056010;28;20037;-63
2023/05/09 12:56:46;;;;;;;5.93;3.30;;;;;;;18.99;100.00;99781.91;5055326;28;19916;-64
2023/05/09 12:59:13;;;;;;;5.72;3.05;;;;;;;19.07;100.00;99780.72;5055386;28;20518;-64
2023/05/09 13:01:39;;;;;;;5.30;2.70;;;;;;;19.28;100.00;99781.91;5055455;28;20113;-64
2023/05/09 13:04:06;;;;;;;5.00;3.17;;;;;;;19.36;100.00;99782.34;5055365;28;20513;-63
2023/05/09 13:06:33;;;;;;;5.05;2.90;;;;;;;19.37;100.00;99780.50;5068567;28;20508;-63
2023/05/09 13:09:01;;;;;;;6.07;3.17;;;;;;;19.44;99.96;99779.28;5074925;28;20060;-62
2023/05/09 13:11:26;;;;;;;4.07;2.67;;;;;;;19.38;98.19;99774.03;5075129;28;20029;-63
2023/05/09 13:13:53;;;;;;;5.30;3.00;;;;;;;19.30;96.48;99771.69;5075212;28;20478;-64
2023/05/09 13:16:19;;;;;;;3.95;2.30;;;;;;;19.49;97.57;99770.41;5075090;28;20068;-65
2023/05/09 13:18:44;;;;;;;3.88;2.35;;;;;;;19.43;94.29;99763.28;5074633;28;20071;-62
2023/05/09 13:21:10;;;;;;;2.13;1.90;;;;;;;19.51;94.47;99769.13;5074871;28;20039;-64
2023/05/09 13:23:35;;;;;;;3.10;2.42;;;;;;;19.72;94.34;99747.91;5075027;28;20028;-64
2023/05/09 13:26:01;;;;;;;3.03;1.80;;;;;;;19.93;90.18;99751.75;5074861;28;20451;-61
2023/05/09 13:28:26;;;;;;;3.55;2.22;;;;;;;20.01;90.83;99743.22;5074641;28;20037;-61
2023/05/09 13:30:51;;;;;;;2.80;2.15;;;;;;;20.15;93.01;99738.28;5074852;28;20047;-64
2023/05/09 13:33:17;;;;;;;2.78;2.15;;;;;;;19.99;92.28;99742.66;5073557;28;20440;-61
2023/05/09 13:35:42;;;;;;;3.33;2.28;;;;;;;19.76;91.88;99724.75;5074730;28;20416;-64
2023/05/09 13:38:07;;;;;;;3.15;2.28;;;;;;;19.87;92.83;99725.69;5074437;28;20048;-65
2023/05/09 13:40:34;;;;;;;3.45;2.40;;;;;;;19.94;94.27;99720.94;5074978;28;20029;-63
2023/05/09 13:42:59;;;;;;;4.45;3.03;;;;;;;19.90;96.30;99726.03;5074662;28;20040;-61
2023/05/09 13:45:24;;;;;;;3.38;2.38;;;;;;;20.00;95.19;99717.25;5074663;28;20040;-62
2023/05/09 13:47:50;;;;;;;3.22;2.35;;;;;;;20.09;94.64;99717.66;5074276;28;20040;-64
2023/05/09 13:50:15;;;;;;;3.83;2.60;;;;;;;20.12;95.06;99717.16;5074485;28;20063;-63
2023/05/09 13:52:41;;;;;;;3.80;2.42;;;;;;;20.14;94.85;99710.44;5074392;28;20127;-64
2023/05/09 13:55:06;;;;;;;2.75;2.20;;;;;;;20.08;92.66;99706.00;5072920;28;20037;-64
2023/05/09 13:57:32;;;;;;;4.55;2.40;;;;;;;19.88;93.76;99700.31;5073946;28;20059;-66
2023/05/09 13:59:57;;;;;;;5.68;2.42;;;;;;;20.11;94.04;99700.13;5074413;28;20437;-63
2023/05/09 14:02:23;;;;;;;3.40;2.22;;;;;;;20.21;94.34;99697.56;5074322;28;20119;-65
2023/05/09 14:04:48;;;;;;;3.35;2.50;;;;;;;20.19;92.56;99686.16;5074234;28;20036;-64
2023/05/09 14:07:15;;;;;;;2.97;2.58;;;;;;;20.27;94.79;99684.91;5073820;28;20397;-55
2023/05/09 14:09:41;;;;;;;3.10;2.13;;;;;;;20.23;94.06;99683.81;5074220;28;20039;-50
2023/05/09 14:12:06;;;;;;;4.22;2.38;;;;;;;20.24;95.39;99678.13;5073984;28;20489;-52
2023/05/09 14:14:32;;;;;;;2.92;2.38;;;;;;;20.08;96.35;99678.97;5074103;28;20036;-51
2023/05/09 14:16:58;;;;;;;3.47;2.60;;;;;;;20.15;96.30;99674.25;5073812;28;20028;-52
2023/05/09 14:19:28;;;;;;;5.63;2.85;;;;;;;20.20;95.02;99674.28;5073876;28;20052;-57
2023/05/09 14:21:54;;;;;;;3.17;2.30;;;;;;;20.31;95.78;99664.44;5073862;28;20036;-55
2023/05/09 14:24:20;;;;;;;2.42;2.15;;;;;;;20.37;95.61;99658.00;5073904;28;20039;-54
2023/05/09 14:26:45;;;;;;;4.15;2.67;;;;;;;20.27;92.33;99639.75;5073567;28;20490;-55
2023/05/09 14:29:10;;;;;;;4.60;2.55;;;;;;;20.33;91.46;99652.28;5073540;28;20040;-53
2023/05/09 14:31:36;;;;;;;3.35;2.42;;;;;;;20.34;92.61;99639.56;5073638;28;20041;-57
2023/05/09 14:34:03;;;;;;;3.03;2.08;;;;;;;20.35;92.36;99640.41;5073552;28;20123;-59
2023/05/09 14:36:29;;;;;;;2.75;2.03;;;;;;;20.30;94.72;99639.28;5073593;28;20051;-57
2023/05/09 14:38:54;;;;;;;2.85;2.25;;;;;;;20.37;93.23;99640.97;5073240;28;20040;-56
2023/05/09 14:41:21;;;;;;;2.63;2.33;;;;;;;20.10;92.32;99630.91;5073590;28;20040;-57
2023/05/09 14:43:47;;;;;;;3.17;2.13;;;;;;;20.23;92.12;99629.72;5073598;28;20044;-56
2023/05/09 14:46:12;;;;;;;3.05;2.38;;;;;;;20.24;94.30;99620.53;5073348;28;20068;-59
2023/05/09 14:48:38;;;;;;;3.10;2.03;;;;;;;20.20;98.08;99625.63;5073051;28;20119;-56
2023/05/09 14:51:03;;;;;;;3.63;2.80;;;;;;;20.22;98.58;99619.97;5073291;28;20036;-55
2023/05/09 14:53:29;;;;;;;3.38;2.20;;;;;;;20.21;96.30;99619.16;5073280;28;20043;-54
2023/05/09 14:55:55;;;;;;;3.25;2.33;;;;;;;20.18;95.64;99613.44;5073141;28;20032;-54
2023/05/09 14:58:21;;;;;;;3.13;2.17;;;;;;;20.25;95.28;99614.88;5073001;28;20444;-58
2023/05/09 15:00:48;;;;;;;3.38;2.42;;;;;;;20.21;94.86;99611.06;5073170;28;20044;-54
2023/05/09 15:03:13;;;;;;;3.42;2.53;;;;;;;20.22;95.21;99611.88;5072953;28;20036;-54
2023/05/09 15:05:39;;;;;;;3.58;2.55;;;;;;;20.22;95.17;99601.88;5072089;28;20043;-55
2023/05/09 15:08:05;;;;;;;3.05;2.40;;;;;;;20.23;95.42;99605.38;5072662;28;20443;-57
2023/05/09 15:10:32;;;;;;;7.53;2.30;;;;;;;20.20;94.85;99603.97;5072915;28;20032;-56
2023/05/09 15:12:58;;;;;;;5.00;2.70;;;;;;;20.26;95.12;99591.34;5072876;28;20545;-54
2023/05/09 15:15:24;;;;;;;2.55;2.10;;;;;;;20.22;95.82;99592.94;5072750;28;20120;-57
2023/05/09 15:17:50;;;;;;;2.72;2.22;;;;;;;20.20;96.13;99589.66;5072525;28;20115;-55
2023/05/09 15:20:16;;;;;;;4.20;2.50;;;;;;;20.19;95.06;99591.53;5072642;28;20108;-55
2023/05/09 15:22:43;;;;;;;4.28;2.58;;;;;;;20.22;94.89;99590.22;5072795;28;20024;-60
2023/05/09 15:25:10;;;;;;;3.28;2.40;;;;;;;20.20;96.22;99576.94;5072550;28;20040;-58
2023/05/09 15:27:36;;;;;;;5.40;3.10;;;;;;;20.24;96.23;99571.84;5072371;28;20047;-62
2023/05/09 15:30:02;;;;;;;4.72;2.80;;;;;;;20.13;96.58;99576.31;5072587;28;20040;-62
2023/05/09 15:32:28;;;;;;;4.55;2.80;;;;;;;20.19;98.01;99569.91;5072503;28;20041;-63
2023/05/09 15:34:53;;;;;;;4.78;2.80;;;;;;;20.14;99.75;99569.03;5072577;28;20047;-63
2023/05/09 15:37:18;;;;;;;3.10;2.42;;;;;;;20.15;99.35;99568.78;5072129;28;20081;-62